BMX weather

Big Mountain Airport
Big Mountain, Alaska, United States

Public forecast

Using degrees Fahrenheit for public forecast. Weather courtesy of forecast.io.

METAR (pilot weather report)

Closest report is Igiugig Airport, 19.8 nm (36.7 km) W. Retrieved 2019/07/20 07:56 UTC (39 minutes ago):

PAIG 200756Z AUTO 22005KT 10SM OVC041 18/17 A3007 RMK AO2 SLP193 T01780167 $

TAF (pilot weather forecast)

Closest forecast is Iliamna Airport, 25.9 nm (47.9 km) NNE. Retrieved 2019/07/20 06:24 UTC (2 hours ago):

TAF PAIL 200523Z 2006/2106 30010KT P6SM FEW040